»·PEaware :: AAL515 KPHX-MMUN

AAL515 :: KPHX-MMUN

FLIGHT INFORMATION

Flight Status: Arrived
Operator:
American Airlines
More flights by this operator :: More flights under this callsign
Pilot: Colin A. (19898)
Aircraft: BOEING 737-800
(B738)
More flights by this aircraft type
Origin: KPHX Phoenix Sky Harbor Intl
United States
Destination: MMUN Cancun Intl
Mexico
More flights between these airports :: More routes between these airports
Route: ECLPS1 PHASE ELP FST PIPPI SATOC BRO RADAS UT22 VESKO UT11 URTEL UT34 VOMAR UM782 CUN
File this flight plan on PilotEdge
Remarks: RMK / SIMBRIEF
Altitude:
(Current/Filed)
35,000ft
Speed:
(Current/Filed)
447kts
Departed: 23-Feb-20 08:58 PM
Arrived: 23-Feb-20 11:08 PM
Distance/Time
Traveled:
1527nm/2:10
Distance/Time
To Go:
Arrived

Flight Plot

Page will automatically refresh every two minutes.


Map Options




Map Legend


Flown Route
Filed Route
Departure Airport
Arrival Airport
Navaid (VOR, NDB)
Fix

Horizontal Profiles

Position Reports

Time Latitude Longitude Heading Altitude Ground
Speed
23-Feb-20 20:21 33.437606 -112.002469 90 1142ft 0kts
23-Feb-20 20:22 33.437606 -112.002469 90 1142ft 0kts
23-Feb-20 20:23 33.437606 -112.002469 90 1142ft 0kts
23-Feb-20 20:24 33.437606 -112.002469 90 1142ft 0kts
23-Feb-20 20:25 33.437606 -112.002469 90 1142ft 0kts
23-Feb-20 20:26 33.437606 -112.002469 90 1142ft 0kts
23-Feb-20 20:27 33.437606 -112.002469 90 1142ft 0kts
23-Feb-20 20:28 33.437606 -112.002469 90 1142ft 0kts
23-Feb-20 20:29 33.437606 -112.002469 90 1142ft 0kts
23-Feb-20 20:30 33.437606 -112.002469 90 1142ft 0kts
23-Feb-20 20:31 33.437606 -112.002469 90 1142ft 0kts
23-Feb-20 20:32 33.437606 -112.002469 90 1142ft 0kts
23-Feb-20 20:33 33.437606 -112.002469 90 1142ft 0kts
23-Feb-20 20:34 33.437606 -112.002469 90 1142ft 0kts
23-Feb-20 20:35 33.437606 -112.002469 90 1142ft 0kts
23-Feb-20 20:36 33.437606 -112.002469 90 1142ft 0kts
23-Feb-20 20:37 33.437606 -112.002469 90 1142ft 0kts
23-Feb-20 20:38 33.437606 -112.002469 90 1142ft 0kts
23-Feb-20 20:39 33.437606 -112.002469 90 1142ft 0kts
23-Feb-20 20:40 33.437606 -112.002469 90 1142ft 0kts
23-Feb-20 20:41 33.437606 -112.002469 90 1142ft 0kts
23-Feb-20 20:42 33.437606 -112.002469 90 1142ft 0kts
23-Feb-20 20:43 33.437606 -112.002490 89 1142ft 1kts
23-Feb-20 20:44 33.437216 -112.003042 0 1142ft 2kts
23-Feb-20 20:45 33.437199 -112.003042 0 1142ft 0kts
23-Feb-20 20:46 33.437200 -112.003042 0 1142ft 0kts
23-Feb-20 20:47 33.437202 -112.003042 359 1142ft 0kts
23-Feb-20 20:48 33.437281 -112.003042 359 1142ft 0kts
23-Feb-20 20:49 33.437535 -112.003046 358 1142ft 5kts
23-Feb-20 20:50 33.438068 -112.003056 359 1142ft 0kts
23-Feb-20 20:51 33.439004 -112.005263 270 1142ft 19kts
23-Feb-20 20:52 33.438982 -112.013531 270 1142ft 24kts
23-Feb-20 20:53 33.438993 -112.020666 270 1142ft 20kts
23-Feb-20 20:54 33.438960 -112.027483 271 1142ft 19kts
23-Feb-20 20:55 33.438987 -112.029009 269 1142ft 0kts
23-Feb-20 20:56 33.440840 -112.028964 86 1142ft 13kts
23-Feb-20 20:57 33.440656 -111.990780 91 1971ft 185kts
23-Feb-20 20:58 33.436789 -111.908446 93 4327ft 272kts
23-Feb-20 20:59 33.401987 -111.828347 131 7742ft 287kts
23-Feb-20 21:00 33.344631 -111.757685 136 10816ft 307kts
23-Feb-20 21:02 33.276350 -111.678279 138 12259ft 377kts
23-Feb-20 21:03 33.197107 -111.588947 139 14778ft 400kts
23-Feb-20 21:04 33.113883 -111.497251 140 17107ft 419kts
23-Feb-20 21:05 33.036048 -111.390360 125 19291ft 440kts
23-Feb-20 21:06 32.968528 -111.265501 125 21334ft 454kts
23-Feb-20 21:07 32.898033 -111.137197 126 22999ft 470kts
23-Feb-20 21:08 32.825413 -111.005087 127 24553ft 484kts
23-Feb-20 21:09 32.750252 -110.868858 128 25827ft 499kts
23-Feb-20 21:10 32.673075 -110.730152 128 26972ft 512kts
23-Feb-20 21:11 32.619419 -110.573578 108 27931ft 538kts
23-Feb-20 21:12 32.582013 -110.398743 109 28785ft 549kts
23-Feb-20 21:13 32.543133 -110.223221 109 29799ft 553kts
23-Feb-20 21:14 32.503917 -110.046440 110 30816ft 556kts
23-Feb-20 21:15 32.463914 -109.869933 110 31791ft 558kts
23-Feb-20 21:16 32.428492 -109.690081 102 32798ft 566kts
23-Feb-20 21:17 32.405933 -109.505217 101 33734ft 569kts
23-Feb-20 21:17 32.386463 -109.351083 102 34566ft 569kts
23-Feb-20 21:19 32.358182 -109.135707 104 35174ft 567kts
23-Feb-20 21:20 32.325213 -108.953738 107 35193ft 564kts
23-Feb-20 21:20 32.297466 -108.802814 106 35203ft 563kts
23-Feb-20 21:22 32.259422 -108.592030 106 35217ft 563kts
23-Feb-20 21:23 32.226477 -108.411421 106 35228ft 561kts
23-Feb-20 21:23 32.198882 -108.261588 106 35232ft 560kts
23-Feb-20 21:24 32.165513 -108.081878 106 35220ft 559kts
23-Feb-20 21:26 32.126383 -107.873054 106 35198ft 558kts
23-Feb-20 21:26 32.098300 -107.724399 106 35194ft 559kts
23-Feb-20 21:27 32.064244 -107.545481 107 35195ft 560kts
23-Feb-20 21:28 32.029807 -107.366021 107 35202ft 561kts
23-Feb-20 21:29 31.995268 -107.187455 107 35214ft 560kts
23-Feb-20 21:30 31.960727 -107.010307 107 35215ft 551kts
23-Feb-20 21:31 31.926139 -106.834264 107 35212ft 551kts
23-Feb-20 21:32 31.891348 -106.658541 107 35201ft 552kts
23-Feb-20 21:33 31.856460 -106.482840 107 35192ft 557kts
23-Feb-20 21:34 31.820378 -106.303879 107 35185ft 564kts
23-Feb-20 21:35 31.777978 -106.127097 111 35189ft 558kts
23-Feb-20 21:36 31.733660 -105.951882 110 35190ft 563kts
23-Feb-20 21:37 31.690019 -105.775855 110 35207ft 561kts
23-Feb-20 21:38 31.646256 -105.600984 111 35213ft 559kts
23-Feb-20 21:39 31.601973 -105.426703 112 35233ft 554kts
23-Feb-20 21:40 31.557851 -105.253053 111 35234ft 556kts
23-Feb-20 21:41 31.513470 -105.080254 111 35234ft 553kts
23-Feb-20 21:42 31.469014 -104.907804 111 35236ft 549kts
23-Feb-20 21:43 31.424539 -104.736273 111 35239ft 555kts
23-Feb-20 21:44 31.379557 -104.563886 111 35245ft 554kts
23-Feb-20 21:45 31.334452 -104.391992 111 35256ft 551kts
23-Feb-20 21:46 31.289113 -104.220733 111 35261ft 551kts
23-Feb-20 21:47 31.243589 -104.048726 111 35270ft 557kts
23-Feb-20 21:48 31.197713 -103.877286 112 35281ft 550kts
23-Feb-20 21:49 31.151728 -103.706696 111 35279ft 550kts
23-Feb-20 21:50 31.105629 -103.536124 111 35276ft 551kts
23-Feb-20 21:51 31.059523 -103.367035 112 35273ft 543kts
23-Feb-20 21:52 31.013595 -103.197991 111 35265ft 548kts
23-Feb-20 21:53 30.966092 -103.028146 114 35260ft 549kts
23-Feb-20 21:54 30.891609 -102.879121 135 35261ft 526kts
23-Feb-20 21:55 30.801687 -102.745592 134 35258ft 521kts
23-Feb-20 21:56 30.712450 -102.611113 134 35259ft 527kts
23-Feb-20 21:57 30.623735 -102.476494 133 35252ft 525kts
23-Feb-20 21:58 30.534320 -102.341447 134 35246ft 525kts
23-Feb-20 21:59 30.445672 -102.208150 133 35231ft 524kts
23-Feb-20 22:00 30.357001 -102.075038 134 35637ft 513kts
23-Feb-20 22:01 30.271717 -101.947764 134 37213ft 501kts
23-Feb-20 22:02 30.184779 -101.818231 134 37224ft 517kts
23-Feb-20 22:03 30.095913 -101.686121 134 37239ft 525kts
23-Feb-20 22:04 30.006663 -101.553798 133 37245ft 520kts
23-Feb-20 22:05 29.765827 -101.198462 134 37034ft 527kts
23-Feb-20 22:06 29.676084 -101.068222 133 36036ft 520kts
23-Feb-20 22:07 29.586879 -100.938625 133 35288ft 514kts
23-Feb-20 22:08 29.311871 -100.538045 133 35271ft 524kts
23-Feb-20 22:09 28.934069 -100.042863 152 35241ft 502kts
23-Feb-20 22:10 28.464166 -99.701916 151 35258ft 501kts
23-Feb-20 22:11 28.000144 -99.353344 151 35247ft 500kts
23-Feb-20 22:12 27.570413 -98.948716 141 35243ft 506kts
23-Feb-20 22:13 27.143719 -98.537464 143 35217ft 504kts
23-Feb-20 22:14 26.718406 -98.127264 141 33138ft 500kts
23-Feb-20 22:15 26.295403 -97.727211 141 31202ft 501kts
23-Feb-20 22:16 25.872098 -97.332518 148 29242ft 488kts
23-Feb-20 22:17 25.450415 -96.962113 123 29149ft 495kts
23-Feb-20 22:18 25.182706 -96.429060 125 29169ft 494kts
23-Feb-20 22:19 24.901388 -95.914224 123 29165ft 486kts
23-Feb-20 22:20 24.621350 -95.407042 123 29162ft 484kts
23-Feb-20 22:21 24.340668 -94.902197 124 29158ft 484kts
23-Feb-20 22:22 24.078789 -94.388482 110 29161ft 486kts
23-Feb-20 22:23 23.878091 -93.841018 114 29160ft 484kts
23-Feb-20 22:24 23.671249 -93.298274 114 29166ft 484kts
23-Feb-20 22:25 23.462037 -92.755132 114 29168ft 485kts
23-Feb-20 22:26 23.251992 -92.216301 114 29155ft 485kts
23-Feb-20 22:27 23.039161 -91.676564 114 29141ft 484kts
23-Feb-20 22:28 22.824432 -91.140538 114 29135ft 484kts
23-Feb-20 22:29 22.609230 -90.606781 114 29138ft 484kts
23-Feb-20 22:30 22.466127 -90.051130 96 29141ft 484kts
23-Feb-20 22:31 22.380761 -89.474216 99 29155ft 484kts
23-Feb-20 22:32 22.290678 -88.903071 99 29160ft 483kts
23-Feb-20 22:33 22.198242 -88.330423 99 29166ft 482kts
23-Feb-20 22:34 22.147370 -88.020391 100 29172ft 482kts
23-Feb-20 22:35 22.085474 -87.895822 136 29175ft 479kts
23-Feb-20 22:36 21.986987 -87.799356 139 29176ft 478kts
23-Feb-20 22:37 21.888843 -87.702764 138 29044ft 477kts
23-Feb-20 22:38 21.791487 -87.606842 138 25994ft 472kts
23-Feb-20 22:39 21.695714 -87.512800 137 22899ft 455kts
23-Feb-20 22:40 21.606221 -87.425060 137 19798ft 418kts
23-Feb-20 22:41 21.522822 -87.343520 137 16690ft 392kts
23-Feb-20 22:42 21.446057 -87.268518 137 14786ft 343kts
23-Feb-20 22:43 21.384023 -87.208020 137 13719ft 303kts
23-Feb-20 22:44 21.324430 -87.149949 136 12239ft 278kts
23-Feb-20 22:45 21.268558 -87.095551 136 10697ft 270kts
23-Feb-20 22:46 21.213973 -87.042142 135 9018ft 262kts
23-Feb-20 22:47 21.160797 -86.990375 135 7311ft 254kts
23-Feb-20 22:48 21.109125 -86.940201 135 5616ft 247kts
23-Feb-20 22:49 21.058914 -86.891519 134 3922ft 240kts
23-Feb-20 22:50 21.009861 -86.847135 158 2940ft 222kts
23-Feb-20 22:51 20.964809 -86.889413 238 3021ft 241kts
23-Feb-20 22:52 20.932095 -86.952108 239 3002ft 242kts
23-Feb-20 22:53 20.909364 -87.017118 290 2948ft 238kts
23-Feb-20 22:54 20.932253 -87.059289 304 3011ft 240kts
23-Feb-20 22:55 20.967064 -87.120418 303 2997ft 240kts
23-Feb-20 22:56 20.970341 -87.125965 307 2991ft 239kts
23-Feb-20 22:57 20.970341 -87.125965 307 2991ft 239kts
23-Feb-20 22:58 20.970341 -87.125965 307 2991ft 239kts
23-Feb-20 22:59 20.987927 -87.137402 358 2949ft 222kts
23-Feb-20 23:00 21.037493 -87.119649 27 3006ft 183kts
23-Feb-20 23:01 21.084793 -87.097996 27 2994ft 183kts
23-Feb-20 23:02 21.107944 -87.055273 76 3015ft 174kts
23-Feb-20 23:03 21.114081 -87.006221 110 2467ft 154kts
23-Feb-20 23:04 21.093741 -86.968509 121 1720ft 145kts
23-Feb-20 23:05 21.070781 -86.931685 122 924ft 148kts
23-Feb-20 23:06 21.048501 -86.896031 121 203ft 134kts
23-Feb-20 23:07 21.035708 -86.875523 122 28ft 5kts
23-Feb-20 23:08 21.037639 -86.875563 327 28ft 18kts
23-Feb-20 23:09 21.041545 -86.877287 52 28ft 20kts
23-Feb-20 23:10 21.041537 -86.875552 123 28ft 0kts
23-Feb-20 23:11 21.041537 -86.875552 123 28ft 0kts
23-Feb-20 23:12 21.040749 -86.876751 147 28ft 0kts

Navigation Log

Ident Type
Flight plan parsing failed, navigation log unavailable